首页
METAR-TAF:

METAR-TAF

机场 :

多維爾, 法国

纬度: 49-21-55N, 经度: 000-09-16E, 海拔: 146米

当前天气观测

该预报发布于13分钟前的19:30 UTC
风速13节,风向西南
温度 8°C
湿度 76%
气压 1022 hPa
能见度10公里或以上
多云层高于3900英尺
阴天层高于4700英尺

METAR: LFRG 181930Z AUTO 22013KT 9999 BKN039 OVC047 08/04 Q1022 TEMPO 25025G40KT 2000 +TSRA BKN015CB

时间: 20:43 (19:43 UTC)

预报

该预报发布于5小时和43分钟前的14:00 UTC
预报有效从18日的 15点(UTC)到 18日的 24点(UTC)
风速15节,风向西转西南,有时为25节阵风
能见度10公里或以上
多云层高于2500英尺
短暂存在
从 18日的 15点(UTC)到 18日的 18点(UTC)
能見度: 4000
多云层高于1500英尺, 塔状积云.
阵雨
成为
从 18日的 18点(UTC)到 18日的 21点(UTC)
风速20节,风向西转西南,有时为33节阵风
短暂存在
从 18日的 18点(UTC)到 18日的 24点(UTC)
风速25节,风向西转西南,有时为40节阵风
能見度: 3000
多云层高于1500英尺, 积雨云.
阵雨
几率 40% :
短暂存在
从 18日的 19点(UTC)到 18日的 24点(UTC)
能見度: 2000
雷暴, 大雨

TAF: LFRG 181400Z 1815/1824 24015G25KT 9999 BKN025 TEMPO 1815/1818 4000 SHRA BKN015TCU BECMG 1818/1821 25020G33KT TEMPO 1818/1824 25025G40KT 3000 SHRA BKN015CB PROB40 TEMPO 1819/1824 2000 +TSRA

超过4000个机场的气象观测和天气预报(METAR&TAF报告)。

可查询的气象台以黄色和红色小点在地图上表示。

将鼠标移到小点上方,可查看气象台名称。

然后点击查看天气观测和预报。

如需切换地图:点击带黑十字的绿色按钮放大地图;点击带横线的绿色按钮缩小地图;或者点击绿色箭头查看邻近地区的地图。


METAR-TAF: